Time;durP1;ratioP1;P1;durP2;ratioP2;P2;SDS_P1;SDS_P2;PMS_P1;PMS_P2;Temp;Humidity;BMP_temperature;BMP_pressure;BME280_temperature;BME280_humidity;BME280_pressure;Samples;Min_cycle;Max_cycle;Signal;HPM_P1;HPM_P2
2023/06/11 00:02:34;;;;;;;4.95;3.80;;;;;;;22.58;41.42;99644.69;10380253;28;20236;-68
2023/06/11 00:07:39;;;;;;;5.07;4.45;;;;;;;23.48;40.94;99608.72;10388015;28;20229;-67
2023/06/11 00:12:40;;;;;;;4.05;3.70;;;;;;;22.42;42.75;99644.59;10387102;28;20212;-69
2023/06/11 00:17:42;;;;;;;4.20;3.75;;;;;;;22.98;41.68;99632.22;10371591;28;20323;-68
2023/06/11 00:22:44;;;;;;;4.93;4.43;;;;;;;21.81;43.72;99661.41;10387668;28;20299;-69
2023/06/11 00:27:46;;;;;;;4.75;4.20;;;;;;;21.44;43.49;99672.31;10394499;28;20237;-68
2023/06/11 00:32:47;;;;;;;5.82;4.00;;;;;;;22.14;42.39;99657.56;10391983;28;20711;-68
2023/06/11 00:37:50;;;;;;;4.50;4.10;;;;;;;23.37;40.84;99637.16;10390019;28;20236;-67
2023/06/11 00:42:51;;;;;;;5.10;4.30;;;;;;;21.78;43.18;99691.91;10394703;28;20318;-67
2023/06/11 00:47:53;;;;;;;6.80;4.18;;;;;;;22.15;42.83;99677.47;10385165;28;20270;-67
2023/06/11 00:52:55;;;;;;;4.70;4.30;;;;;;;22.34;42.71;99678.63;10380903;28;20209;-67
2023/06/11 00:57:57;;;;;;;4.78;4.03;;;;;;;22.08;42.65;99661.34;10392311;28;20582;-68
2023/06/11 01:03:07;;;;;;;4.25;3.85;;;;;;;23.45;40.73;99637.41;10383089;28;20232;-68
2023/06/11 01:08:13;;;;;;;5.13;4.30;;;;;;;21.28;43.62;99687.69;10385957;28;20259;-67
2023/06/11 01:13:15;;;;;;;4.72;4.25;;;;;;;21.62;44.16;99668.38;10378095;28;20271;-69
2023/06/11 01:18:22;;;;;;;4.88;4.25;;;;;;;21.47;44.60;99677.25;10375883;28;20225;-69
2023/06/11 01:23:53;;;;;;;5.13;4.63;;;;;;;20.88;44.69;99675.31;10372633;28;20214;-68
2023/06/11 01:28:58;;;;;;;5.30;4.80;;;;;;;21.24;44.51;99665.63;10378109;28;20209;-68
2023/06/11 01:34:01;;;;;;;6.35;4.65;;;;;;;21.96;43.51;99655.28;10389990;28;20231;-67
2023/06/11 01:39:04;;;;;;;5.10;4.60;;;;;;;21.95;43.76;99659.91;10380423;28;20259;-69
2023/06/11 01:44:06;;;;;;;5.95;4.65;;;;;;;21.85;43.96;99659.81;10398038;28;20319;-68
2023/06/11 01:49:07;;;;;;;5.47;4.40;;;;;;;23.01;42.72;99639.81;10389023;28;20214;-67
2023/06/11 01:54:09;;;;;;;4.63;4.22;;;;;;;21.73;44.78;99646.41;10383720;28;20228;-68
2023/06/11 01:59:12;;;;;;;5.90;5.30;;;;;;;20.38;46.76;99677.16;10387230;28;20236;-68
2023/06/11 02:04:14;;;;;;;7.38;5.20;;;;;;;20.56;46.35;99663.25;10378470;28;20245;-66
2023/06/11 02:09:16;;;;;;;5.93;5.03;;;;;;;20.73;46.48;99652.28;10379972;28;20205;-68
2023/06/11 02:14:18;;;;;;;6.15;5.10;;;;;;;20.31;47.46;99678.19;10380610;28;20461;-68
2023/06/11 02:19:19;;;;;;;6.85;5.05;;;;;;;20.22;47.43;99670.72;10388010;28;20214;-69
2023/06/11 02:24:21;;;;;;;5.93;5.32;;;;;;;20.37;47.59;99680.97;10385110;28;20322;-68
2023/06/11 02:29:23;;;;;;;8.38;5.53;;;;;;;20.34;47.66;99681.47;10385438;28;20229;-68
2023/06/11 02:34:25;;;;;;;6.72;5.70;;;;;;;19.90;48.59;99682.19;10385132;28;20271;-68
2023/06/11 02:39:26;;;;;;;6.18;5.68;;;;;;;18.95;50.11;99687.38;10380396;28;20695;-68
2023/06/11 02:44:28;;;;;;;6.43;5.82;;;;;;;19.67;48.53;99683.19;10390366;28;20235;-68
2023/06/11 02:49:30;;;;;;;6.05;5.45;;;;;;;19.24;49.24;99698.22;10381054;28;20212;-68
2023/06/11 02:54:32;;;;;;;6.18;5.55;;;;;;;19.88;48.75;99697.91;10383844;28;20779;-67
2023/06/11 02:59:33;;;;;;;8.30;5.40;;;;;;;19.90;48.08;99703.91;10385650;28;20236;-68
2023/06/11 03:04:36;;;;;;;6.35;5.50;;;;;;;20.21;47.43;99705.22;10385402;28;20252;-68
2023/06/11 03:09:37;;;;;;;7.13;6.40;;;;;;;21.28;46.17;99693.13;10381024;28;20265;-67
2023/06/11 03:14:39;;;;;;;7.53;6.20;;;;;;;20.28;47.88;99710.47;10380164;28;20264;-67
2023/06/11 03:19:41;;;;;;;6.28;5.38;;;;;;;20.31;47.02;99699.91;10385018;28;20216;-68
2023/06/11 03:24:43;;;;;;;6.72;6.13;;;;;;;19.91;48.13;99725.41;10383170;28;20229;-67
2023/06/11 03:29:44;;;;;;;7.70;5.85;;;;;;;20.51;46.68;99706.66;10378504;28;20213;-68
2023/06/11 03:34:46;;;;;;;5.85;5.28;;;;;;;19.69;47.21;99721.78;10383086;28;20236;-68
2023/06/11 03:39:48;;;;;;;6.63;6.00;;;;;;;21.81;45.35;99685.13;10372440;28;20700;-67
2023/06/11 03:44:49;;;;;;;6.30;5.70;;;;;;;20.74;46.86;99713.75;10392375;28;20232;-68
2023/06/11 03:49:51;;;;;;;6.10;5.50;;;;;;;20.77;47.05;99698.88;10384099;28;20606;-69
2023/06/11 03:54:53;;;;;;;7.00;5.55;;;;;;;22.16;44.72;99690.78;10395939;28;20236;-69
2023/06/11 03:59:55;;;;;;;6.10;5.32;;;;;;;20.82;47.23;99717.97;10394175;28;21116;-67
2023/06/11 04:04:56;;;;;;;7.57;5.43;;;;;;;19.02;49.36;99726.03;10381108;28;20327;-66
2023/06/11 04:09:58;;;;;;;8.43;5.25;;;;;;;21.09;46.94;99708.97;10387924;28;20236;-69
2023/06/11 04:15:00;;;;;;;7.82;6.03;;;;;;;20.25;47.62;99755.25;10396248;28;20221;-68
2023/06/11 04:20:02;;;;;;;6.75;5.35;;;;;;;20.82;46.76;99723.41;10387594;28;20260;-67
2023/06/11 04:25:06;;;;;;;5.93;5.30;;;;;;;19.89;49.07;99762.84;10374640;28;20242;-68
2023/06/11 04:30:09;;;;;;;5.60;5.10;;;;;;;19.67;49.30;99754.63;10391305;28;20299;-68
2023/06/11 04:35:10;;;;;;;6.20;5.60;;;;;;;19.04;50.49;99748.28;10388289;28;20313;-68
2023/06/11 04:40:19;;;;;;;8.18;5.97;;;;;;;19.89;48.63;99746.53;10391211;28;20205;-68
2023/06/11 04:45:20;;;;;;;5.97;5.25;;;;;;;18.54;50.75;99744.28;10390097;28;20253;-68
2023/06/11 04:50:22;;;;;;;6.43;5.82;;;;;;;19.78;49.01;99752.88;10391200;28;20219;-68
2023/06/11 04:55:24;;;;;;;6.38;5.13;;;;;;;20.47;47.42;99740.88;10388130;28;20654;-68
2023/06/11 05:00:28;;;;;;;7.35;5.30;;;;;;;20.50;47.46;99734.94;10384806;28;20205;-69
2023/06/11 05:05:30;;;;;;;6.63;5.43;;;;;;;19.93;47.83;99769.41;10381987;28;20379;-67
2023/06/11 05:10:32;;;;;;;6.90;5.28;;;;;;;20.11;47.83;99770.25;10384301;28;20590;-67
2023/06/11 05:15:33;;;;;;;5.53;5.03;;;;;;;21.70;45.90;99723.16;10391781;28;20590;-68
2023/06/11 05:20:35;;;;;;;6.93;5.15;;;;;;;22.22;45.13;99704.44;10388191;28;20248;-69
2023/06/11 05:25:46;;;;;;;5.50;4.97;;;;;;;22.21;45.53;99703.63;10382750;28;20290;-68
2023/06/11 05:30:49;;;;;;;5.65;4.70;;;;;;;20.84;47.45;99756.59;10385417;28;20213;-68
2023/06/11 05:35:52;;;;;;;6.32;5.00;;;;;;;21.53;46.28;99715.13;10380963;28;20316;-69
2023/06/11 05:40:54;;;;;;;5.50;5.00;;;;;;;22.24;45.05;99691.41;10379730;28;20212;-69
2023/06/11 05:45:56;;;;;;;6.70;4.80;;;;;;;22.14;45.75;99735.75;10386831;28;20224;-66
2023/06/11 05:50:58;;;;;;;6.05;5.28;;;;;;;22.06;45.66;99719.91;10386446;28;20702;-68
2023/06/11 05:56:03;;;;;;;5.25;4.65;;;;;;;21.49;45.77;99730.38;10392126;28;20215;-68
2023/06/11 06:01:06;;;;;;;5.40;4.90;;;;;;;22.61;45.08;99701.41;10385378;28;20278;-67
2023/06/11 06:06:08;;;;;;;6.53;5.32;;;;;;;21.28;46.67;99758.44;10381476;28;20608;-68
2023/06/11 06:11:10;;;;;;;5.40;4.68;;;;;;;22.13;45.10;99715.88;10390053;28;20232;-68
2023/06/11 06:16:12;;;;;;;4.93;4.53;;;;;;;22.75;44.58;99707.97;10385772;28;20220;-68
2023/06/11 06:21:14;;;;;;;5.35;4.82;;;;;;;21.44;45.25;99762.94;10386173;28;20213;-67
2023/06/11 06:26:16;;;;;;;5.38;4.88;;;;;;;22.10;45.29;99719.13;10377021;28;20354;-68
2023/06/11 06:31:18;;;;;;;5.65;5.03;;;;;;;21.10;46.88;99790.34;10383400;28;20243;-68
2023/06/11 06:36:20;;;;;;;5.40;4.90;;;;;;;23.21;44.52;99691.75;10388462;28;20232;-68
2023/06/11 06:41:21;;;;;;;5.60;5.05;;;;;;;23.14;44.72;99682.97;10389054;28;20239;-68
2023/06/11 06:46:25;;;;;;;5.50;5.00;;;;;;;23.07;44.91;99696.91;10379398;28;20456;-68
2023/06/11 06:51:29;;;;;;;5.30;4.80;;;;;;;22.81;45.21;99696.00;10383262;28;20288;-67
2023/06/11 06:56:31;;;;;;;6.43;5.45;;;;;;;22.83;44.74;99695.75;10390810;28;20237;-68
2023/06/11 07:01:32;;;;;;;5.70;5.10;;;;;;;23.06;44.42;99705.34;10384204;28;20216;-69
2023/06/11 07:06:36;;;;;;;5.70;4.93;;;;;;;24.12;42.84;99696.59;10378776;28;20237;-69
2023/06/11 07:11:38;;;;;;;5.55;4.85;;;;;;;23.35;44.41;99710.31;10386709;28;20225;-69
2023/06/11 07:16:39;;;;;;;5.82;4.53;;;;;;;24.11;43.45;99679.38;10383266;28;20695;-68
2023/06/11 07:21:41;;;;;;;5.80;5.20;;;;;;;23.51;43.80;99711.94;10381478;28;20692;-69
2023/06/11 07:26:43;;;;;;;6.63;5.32;;;;;;;23.55;43.97;99696.66;10394349;28;20235;-69
2023/06/11 07:31:45;;;;;;;5.95;4.75;;;;;;;24.21;42.14;99666.78;10387091;28;20256;-69
2023/06/11 07:36:47;;;;;;;5.13;4.63;;;;;;;24.92;41.84;99644.56;10393781;28;20248;-66
2023/06/11 07:41:48;;;;;;;5.55;4.82;;;;;;;25.12;41.84;99659.22;10392237;28;20219;-69
2023/06/11 07:46:50;;;;;;;7.20;4.60;;;;;;;24.62;42.17;99685.78;10388480;28;20233;-68
2023/06/11 07:51:52;;;;;;;7.22;5.00;;;;;;;24.46;42.69;99679.53;10390325;28;20842;-67
2023/06/11 07:56:54;;;;;;;6.00;4.90;;;;;;;25.57;41.53;99643.50;10389503;28;20269;-67
2023/06/11 08:01:55;;;;;;;4.97;4.47;;;;;;;24.78;42.06;99675.56;10386290;28;20265;-66
2023/06/11 08:06:58;;;;;;;5.20;4.60;;;;;;;24.14;42.67;99697.13;10392941;28;20731;-67
2023/06/11 08:11:59;;;;;;;5.28;4.72;;;;;;;25.46;41.66;99645.53;10388788;28;20680;-69
2023/06/11 08:17:02;;;;;;;6.57;5.10;;;;;;;24.94;41.84;99670.84;10395069;28;20232;-67
2023/06/11 08:22:04;;;;;;;5.55;4.65;;;;;;;25.27;41.51;99647.34;10394953;28;20232;-67
2023/06/11 08:27:08;;;;;;;8.65;4.22;;;;;;;25.50;40.63;99636.75;10385425;28;20233;-67
2023/06/11 08:32:09;;;;;;;6.43;4.85;;;;;;;25.97;40.46;99646.94;10392155;28;20209;-67
2023/06/11 08:37:11;;;;;;;5.72;4.53;;;;;;;25.39;41.07;99658.75;10383078;28;20260;-69
2023/06/11 08:42:13;;;;;;;7.05;4.70;;;;;;;24.04;42.15;99727.22;10391899;28;20242;-69
2023/06/11 08:47:16;;;;;;;6.05;4.63;;;;;;;24.90;41.04;99656.91;10387975;28;20233;-67
2023/06/11 08:52:20;;;;;;;6.03;4.35;;;;;;;25.89;40.10;99617.44;10388034;28;20641;-68
2023/06/11 08:57:25;;;;;;;6.80;4.75;;;;;;;25.59;41.22;99635.81;10391591;28;20291;-68
2023/06/11 09:02:27;;;;;;;5.60;4.20;;;;;;;26.60;39.15;99611.34;10386485;28;20777;-69
2023/06/11 09:07:29;;;;;;;5.68;4.22;;;;;;;25.22;41.09;99661.06;10379176;28;20665;-68
2023/06/11 09:12:31;;;;;;;7.57;4.65;;;;;;;26.16;39.94;99607.78;10387960;28;20244;-68
2023/06/11 09:17:37;;;;;;;5.15;4.57;;;;;;;26.35;39.68;99618.81;10379836;28;20291;-68
2023/06/11 09:22:41;;;;;;;5.03;4.47;;;;;;;26.15;39.28;99612.47;10383024;28;20656;-67
2023/06/11 09:27:47;;;;;;;5.05;4.55;;;;;;;26.69;39.02;99615.88;10382043;28;20767;-69
2023/06/11 09:32:49;;;;;;;4.80;4.30;;;;;;;26.38;38.53;99604.50;10386945;28;20270;-69
2023/06/11 09:37:52;;;;;;;6.32;4.45;;;;;;;25.46;40.06;99669.38;10386931;28;20387;-67
2023/06/11 09:42:55;;;;;;;5.35;4.25;;;;;;;25.90;39.15;99638.25;10394787;28;20278;-68
2023/06/11 09:47:58;;;;;;;4.50;4.10;;;;;;;26.12;39.06;99650.63;10385311;28;20233;-66
2023/06/11 09:53:05;;;;;;;4.93;4.20;;;;;;;26.44;37.82;99610.75;10384967;28;20213;-65
2023/06/11 09:58:08;;;;;;;6.00;4.78;;;;;;;26.80;38.16;99608.31;10389115;28;20233;-67
2023/06/11 10:03:10;;;;;;;5.43;3.83;;;;;;;27.25;37.07;99581.25;10385638;28;20339;-66
2023/06/11 10:08:17;;;;;;;4.88;4.20;;;;;;;27.70;36.46;99575.22;10384527;28;20236;-67
2023/06/11 10:13:34;;;;;;;5.50;4.68;;;;;;;26.57;36.78;99662.97;10385101;28;20209;-67
2023/06/11 10:18:36;;;;;;;4.18;3.85;;;;;;;26.88;35.75;99637.84;10380796;28;20214;-68
2023/06/11 10:23:40;;;;;;;6.22;4.50;;;;;;;27.91;35.48;99588.56;10382569;28;20208;-67
2023/06/11 10:28:48;;;;;;;5.78;4.30;;;;;;;27.10;35.94;99625.41;10386017;28;20243;-67
2023/06/11 10:33:50;;;;;;;4.60;3.78;;;;;;;27.33;34.72;99628.34;10386552;28;20213;-66
2023/06/11 10:39:03;;;;;;;5.72;3.88;;;;;;;27.57;34.67;99604.28;10383118;28;20219;-67
2023/06/11 10:44:06;;;;;;;4.10;3.70;;;;;;;27.54;34.02;99615.88;10388753;28;20228;-66
2023/06/11 10:49:13;;;;;;;6.50;3.58;;;;;;;28.03;33.23;99617.13;10386273;28;20233;-67
2023/06/11 10:54:36;;;;;;;4.30;3.60;;;;;;;28.02;32.70;99612.78;10382012;28;20228;-67
2023/06/11 10:59:38;;;;;;;5.38;3.80;;;;;;;28.22;32.54;99599.72;10388357;28;20220;-67
2023/06/11 11:06:26;;;;;;;4.10;3.47;;;;;;;26.56;33.14;99661.31;10433873;28;21107;-67
2023/06/11 11:11:28;;;;;;;6.13;3.20;;;;;;;26.79;31.96;99649.78;10372861;28;20259;-66
2023/06/11 11:16:30;;;;;;;5.13;3.33;;;;;;;26.36;32.07;99680.78;10399238;28;20320;-67
2023/06/11 11:21:32;;;;;;;5.43;3.60;;;;;;;26.04;32.32;99693.19;10386754;28;20212;-68
2023/06/11 11:26:44;;;;;;;3.17;2.80;;;;;;;27.48;31.68;99636.31;10388418;28;20296;-67
2023/06/11 11:31:46;;;;;;;6.72;3.30;;;;;;;27.24;30.83;99640.03;10391453;28;20247;-67
2023/06/11 11:36:48;;;;;;;5.72;3.10;;;;;;;27.08;30.95;99647.69;10385027;28;20770;-66
2023/06/11 11:41:51;;;;;;;3.88;3.30;;;;;;;27.80;30.68;99618.16;10388673;28;20228;-68
2023/06/11 11:46:58;;;;;;;7.57;3.80;;;;;;;26.81;31.51;99664.84;10382497;28;20654;-68
2023/06/11 11:52:00;;;;;;;8.27;3.45;;;;;;;28.20;30.85;99613.78;10382852;28;20726;-68
2023/06/11 11:57:04;;;;;;;4.97;3.40;;;;;;;28.46;30.68;99602.25;10386605;28;20259;-67
2023/06/11 12:02:07;;;;;;;4.00;3.40;;;;;;;27.18;30.34;99651.41;10380479;28;20245;-67
2023/06/11 12:07:14;;;;;;;3.85;3.42;;;;;;;28.65;30.02;99582.81;10390479;28;20713;-67
2023/06/11 12:12:16;;;;;;;3.78;3.20;;;;;;;27.64;29.08;99617.63;10388817;28;20868;-68
2023/06/11 12:17:18;;;;;;;4.20;3.00;;;;;;;26.85;28.31;99646.66;10371537;28;20225;-68
2023/06/11 12:22:20;;;;;;;3.90;3.20;;;;;;;28.49;27.68;99578.78;10359955;28;20316;-66
2023/06/11 12:27:22;;;;;;;5.43;3.17;;;;;;;28.03;27.57;99611.66;10357163;28;20283;-68
2023/06/11 12:32:25;;;;;;;6.68;3.03;;;;;;;27.87;27.98;99607.59;10347201;28;20606;-67
2023/06/11 12:37:28;;;;;;;4.72;3.15;;;;;;;28.16;27.22;99600.97;10361414;28;20923;-67
2023/06/11 12:42:32;;;;;;;5.88;3.35;;;;;;;28.46;27.18;99595.91;10367391;28;20279;-67
2023/06/11 12:47:34;;;;;;;3.67;2.80;;;;;;;28.68;27.24;99587.72;10363758;28;20286;-67
2023/06/11 12:52:35;;;;;;;3.55;2.72;;;;;;;28.16;26.90;99599.00;10365029;28;20281;-67
2023/06/11 12:57:37;;;;;;;5.00;3.15;;;;;;;28.72;27.04;99588.72;10360860;28;20245;-66
2023/06/11 13:02:39;;;;;;;3.30;3.00;;;;;;;28.37;26.09;99604.09;10357299;28;20245;-65
2023/06/11 13:07:41;;;;;;;6.40;3.45;;;;;;;28.49;26.33;99592.53;10354348;28;20249;-67
2023/06/11 13:12:43;;;;;;;4.43;3.30;;;;;;;29.17;26.75;99567.81;10362286;28;20217;-67
2023/06/11 13:17:45;;;;;;;4.53;3.20;;;;;;;29.23;27.86;99550.84;10358149;28;20264;-66
2023/06/11 13:22:47;;;;;;;4.07;3.20;;;;;;;28.76;27.16;99578.72;10363128;28;20293;-66
2023/06/11 13:27:48;;;;;;;4.40;3.17;;;;;;;28.80;26.48;99548.63;10344572;28;20236;-67
2023/06/11 13:32:50;;;;;;;5.22;3.33;;;;;;;29.41;27.32;99535.19;10355930;28;20912;-67
2023/06/11 13:37:52;;;;;;;5.45;3.63;;;;;;;29.36;27.43;99551.06;10356640;28;20275;-66
2023/06/11 13:42:54;;;;;;;4.55;3.10;;;;;;;29.65;26.65;99515.53;10364284;28;20235;-67
2023/06/11 13:48:00;;;;;;;4.65;3.40;;;;;;;29.00;27.07;99550.06;10356190;28;20320;-67
2023/06/11 13:53:02;;;;;;;4.05;2.70;;;;;;;29.53;26.86;99532.63;10363712;28;20673;-66
2023/06/11 13:58:07;;;;;;;4.47;3.20;;;;;;;28.52;26.77;99542.41;10369571;28;20240;-66
2023/06/11 14:03:09;;;;;;;3.95;2.97;;;;;;;28.72;26.75;99539.16;10341698;28;20239;-66
2023/06/11 14:08:17;;;;;;;4.63;4.15;;;;;;;28.82;27.17;99527.09;10356087;28;20229;-66
2023/06/11 14:13:19;;;;;;;4.07;3.33;;;;;;;28.88;26.28;99530.50;10344668;28;20214;-66
2023/06/11 14:18:20;;;;;;;3.95;3.25;;;;;;;28.84;25.80;99529.53;10345994;28;20846;-67
2023/06/11 14:23:22;;;;;;;3.72;3.10;;;;;;;28.75;26.41;99510.22;10349628;28;20231;-67
2023/06/11 14:28:24;;;;;;;5.15;3.55;;;;;;;29.83;26.05;99497.06;10341246;28;20225;-66
2023/06/11 14:33:25;;;;;;;5.30;3.72;;;;;;;29.15;26.38;99502.03;10339269;28;20486;-67
2023/06/11 14:38:27;;;;;;;4.40;3.13;;;;;;;27.91;25.93;99533.56;10345576;28;20249;-67
2023/06/11 14:43:29;;;;;;;5.00;3.28;;;;;;;28.05;26.13;99526.94;10354637;28;20224;-66
2023/06/11 14:48:30;;;;;;;4.47;3.38;;;;;;;29.05;26.41;99514.13;10347245;28;20238;-67
2023/06/11 14:53:32;;;;;;;3.80;3.20;;;;;;;29.49;25.54;99490.31;10345028;28;20237;-67
2023/06/11 14:58:34;;;;;;;4.60;3.30;;;;;;;29.33;26.40;99489.13;10346189;28;20295;-67
2023/06/11 15:03:36;;;;;;;5.78;3.20;;;;;;;29.47;26.36;99491.75;10348791;28;20240;-67
2023/06/11 15:08:38;;;;;;;5.30;3.60;;;;;;;29.03;26.74;99499.81;10347429;28;20209;-67
2023/06/11 15:13:40;;;;;;;6.82;3.33;;;;;;;28.46;27.40;99503.19;10347459;28;20249;-66
2023/06/11 15:18:42;;;;;;;4.43;3.60;;;;;;;28.81;27.18;99488.88;10355927;28;20213;-66
2023/06/11 15:23:44;;;;;;;6.25;3.97;;;;;;;29.05;27.31;99503.09;10348363;28;20229;-67
2023/06/11 15:28:46;;;;;;;6.30;3.80;;;;;;;28.25;27.21;99511.09;10342430;28;20303;-67
2023/06/11 15:33:47;;;;;;;4.93;3.90;;;;;;;27.66;27.50;99505.47;10344269;28;20620;-66
2023/06/11 15:38:49;;;;;;;5.95;3.88;;;;;;;28.07;27.86;99499.13;10342395;28;20205;-67
2023/06/11 15:43:51;;;;;;;7.60;3.72;;;;;;;29.31;27.90;99472.91;10347644;28;20261;-67
2023/06/11 15:48:54;;;;;;;4.45;3.40;;;;;;;29.18;27.05;99489.56;10348024;28;20213;-65
2023/06/11 15:53:56;;;;;;;5.50;3.75;;;;;;;29.69;27.30;99466.06;10363417;28;20205;-67
2023/06/11 15:58:58;;;;;;;5.30;3.80;;;;;;;30.45;26.45;99448.28;10351461;28;20696;-65
2023/06/11 16:03:59;;;;;;;4.32;3.58;;;;;;;28.18;27.33;99525.28;10359150;28;20733;-66
2023/06/11 16:09:01;;;;;;;5.57;3.83;;;;;;;28.83;27.69;99511.38;10351406;28;20305;-66
2023/06/11 16:14:03;;;;;;;4.90;3.63;;;;;;;29.08;27.06;99507.13;10359903;28;20704;-65
2023/06/11 16:19:05;;;;;;;7.15;3.65;;;;;;;29.24;26.37;99505.63;10356763;28;20205;-66
2023/06/11 16:24:07;;;;;;;6.65;3.60;;;;;;;29.00;26.77;99506.00;10354259;28;20319;-65
2023/06/11 16:29:09;;;;;;;5.82;3.63;;;;;;;30.16;26.58;99476.53;10355802;28;20210;-65
2023/06/11 16:34:11;;;;;;;5.65;3.92;;;;;;;29.87;26.18;99503.56;10354372;28;20307;-67
2023/06/11 16:39:13;;;;;;;6.45;3.92;;;;;;;29.40;26.20;99525.28;10358337;28;20210;-65
2023/06/11 16:44:28;;;;;;;5.47;3.58;;;;;;;28.84;26.89;99513.00;10356019;28;20260;-67
2023/06/11 16:49:29;;;;;;;4.75;3.60;;;;;;;29.23;26.14;99504.00;10354244;28;20708;-67
2023/06/11 16:54:31;;;;;;;5.07;3.95;;;;;;;29.46;25.98;99485.44;10363766;28;20284;-67
2023/06/11 16:59:33;;;;;;;3.83;3.30;;;;;;;30.02;26.40;99476.66;10354971;28;20272;-67
2023/06/11 17:04:34;;;;;;;4.18;3.70;;;;;;;28.30;27.03;99530.22;10360891;28;20241;-68
2023/06/11 17:09:38;;;;;;;4.63;3.63;;;;;;;30.81;25.54;99455.34;10354631;28;20295;-67
2023/06/11 17:14:40;;;;;;;4.78;3.33;;;;;;;28.89;26.64;99521.94;10352558;28;20777;-67
2023/06/11 17:19:44;;;;;;;6.38;4.03;;;;;;;29.41;26.20;99493.06;10361724;28;20209;-66
2023/06/11 17:24:48;;;;;;;4.53;3.85;;;;;;;28.97;26.29;99504.66;10347797;28;20241;-67
2023/06/11 17:29:51;;;;;;;6.22;3.75;;;;;;;28.53;26.65;99519.25;10348708;28;20213;-67
2023/06/11 17:34:55;;;;;;;5.72;3.80;;;;;;;28.16;26.71;99523.94;10351614;28;20270;-67
2023/06/11 17:39:57;;;;;;;6.60;3.58;;;;;;;30.22;25.93;99472.47;10363084;28;20203;-67
2023/06/11 17:44:59;;;;;;;6.57;3.70;;;;;;;29.24;26.85;99507.59;10360551;28;20261;-66
2023/06/11 17:50:01;;;;;;;6.65;3.47;;;;;;;28.46;26.88;99521.63;10358381;28;20209;-67
2023/06/11 17:55:03;;;;;;;5.10;3.60;;;;;;;28.85;26.91;99517.41;10350327;28;20220;-65
2023/06/11 18:00:06;;;;;;;3.95;3.55;;;;;;;27.42;27.65;99527.66;10364752;28;20640;-65
2023/06/11 18:05:08;;;;;;;3.95;3.40;;;;;;;27.96;27.19;99534.25;10355484;28;20339;-65
2023/06/11 18:10:11;;;;;;;7.90;3.40;;;;;;;27.33;27.05;99545.94;10357677;28;20299;-65
2023/06/11 18:15:12;;;;;;;7.50;4.03;;;;;;;28.08;27.12;99524.69;10349941;28;20225;-66
2023/06/11 18:20:17;;;;;;;6.88;3.80;;;;;;;27.98;26.98;99542.19;10354929;28;20292;-67
2023/06/11 18:25:19;;;;;;;8.27;3.75;;;;;;;27.01;27.84;99536.59;10351600;28;20237;-66
2023/06/11 18:30:21;;;;;;;4.65;3.30;;;;;;;26.07;28.52;99541.03;10351861;28;20205;-69
2023/06/11 18:35:23;;;;;;;5.93;3.85;;;;;;;26.97;28.01;99550.13;10351967;28;20744;-69
2023/06/11 18:40:25;;;;;;;6.75;3.92;;;;;;;27.17;28.09;99537.16;10353413;28;20948;-68
2023/06/11 18:45:26;;;;;;;5.20;3.45;;;;;;;27.68;27.50;99528.78;10360278;28;20332;-67
2023/06/11 18:50:28;;;;;;;5.72;3.78;;;;;;;27.38;27.80;99530.19;10349606;28;20209;-66
2023/06/11 18:55:31;;;;;;;4.15;3.63;;;;;;;27.02;28.06;99549.22;10355113;28;20225;-66
2023/06/11 19:00:35;;;;;;;5.20;3.78;;;;;;;27.51;27.69;99553.28;10353874;28;20231;-66
2023/06/11 19:05:37;;;;;;;5.53;3.92;;;;;;;28.04;27.48;99544.53;10355798;28;20245;-69
2023/06/11 19:10:39;;;;;;;4.85;4.03;;;;;;;27.33;27.94;99548.69;10357316;28;20303;-68
2023/06/11 19:15:41;;;;;;;4.00;3.60;;;;;;;27.29;28.15;99552.06;10367663;28;20995;-66
2023/06/11 19:20:43;;;;;;;4.28;3.70;;;;;;;26.44;28.25;99575.91;10350347;28;20276;-68
2023/06/11 19:25:44;;;;;;;5.53;3.55;;;;;;;27.29;27.96;99567.72;10367138;28;20291;-67
2023/06/11 19:30:46;;;;;;;5.15;3.50;;;;;;;27.64;27.49;99565.41;10362512;28;20217;-67
2023/06/11 19:35:48;;;;;;;6.00;3.67;;;;;;;28.34;27.45;99555.19;10365562;28;20932;-68
2023/06/11 19:40:50;;;;;;;6.05;4.00;;;;;;;27.78;27.59;99581.94;10361479;28;20310;-68
2023/06/11 19:45:51;;;;;;;5.15;3.65;;;;;;;28.23;27.86;99560.13;10359186;28;20228;-68
2023/06/11 19:50:53;;;;;;;10.65;4.03;;;;;;;27.28;28.76;99568.84;10369276;28;20202;-68
2023/06/11 19:55:55;;;;;;;5.30;3.65;;;;;;;28.08;28.37;99569.47;10364179;28;20266;-68
2023/06/11 20:00:57;;;;;;;6.07;3.90;;;;;;;27.95;28.25;99573.91;10359483;28;20267;-67
2023/06/11 20:05:58;;;;;;;4.72;3.70;;;;;;;28.31;28.16;99570.38;10358301;28;20248;-69
2023/06/11 20:11:07;;;;;;;4.72;3.78;;;;;;;27.95;28.50;99589.56;10368682;28;20201;-68
2023/06/11 20:16:10;;;;;;;4.30;3.90;;;;;;;27.25;28.72;99602.41;10361733;28;20228;-68
2023/06/11 20:21:12;;;;;;;5.72;4.00;;;;;;;27.37;29.09;99599.97;10372798;28;20222;-67
2023/06/11 20:26:13;;;;;;;6.40;4.00;;;;;;;26.48;29.83;99601.63;10365169;28;20260;-66
2023/06/11 20:31:15;;;;;;;6.03;3.78;;;;;;;27.44;29.01;99586.66;10367383;28;20214;-69
2023/06/11 20:36:17;;;;;;;4.13;3.42;;;;;;;25.87;30.28;99622.41;10363424;28;20267;-68
2023/06/11 20:41:19;;;;;;;5.47;3.88;;;;;;;26.25;29.54;99632.66;10367770;28;20802;-68
2023/06/11 20:46:20;;;;;;;4.90;3.72;;;;;;;26.20;29.83;99634.34;10364514;28;20233;-68
2023/06/11 20:51:30;;;;;;;5.70;3.58;;;;;;;25.38;30.41;99640.66;10356188;28;20205;-66
2023/06/11 20:56:32;;;;;;;7.20;4.13;;;;;;;26.20;29.89;99620.63;10364018;28;20240;-68
2023/06/11 21:01:33;;;;;;;4.90;3.97;;;;;;;24.88;31.22;99629.00;10364459;28;20220;-66
2023/06/11 21:06:39;;;;;;;4.97;4.03;;;;;;;24.64;30.96;99626.13;10355108;28;20247;-67
2023/06/11 21:11:41;;;;;;;6.68;4.30;;;;;;;25.63;30.84;99622.38;10357319;28;20268;-68
2023/06/11 21:16:43;;;;;;;5.68;4.53;;;;;;;25.94;30.75;99589.97;10359571;28;20237;-68
2023/06/11 21:21:45;;;;;;;6.22;4.32;;;;;;;24.83;31.66;99601.66;10361944;28;20300;-67
2023/06/11 21:26:47;;;;;;;7.15;4.10;;;;;;;25.52;31.19;99596.97;10363248;28;20316;-69
2023/06/11 21:31:49;;;;;;;4.80;4.18;;;;;;;22.96;33.06;99609.81;10350952;28;20641;-68
2023/06/11 21:36:50;;;;;;;5.70;4.20;;;;;;;24.05;32.67;99593.03;10364300;28;20228;-68
2023/06/11 21:41:52;;;;;;;7.43;4.80;;;;;;;23.65;33.02;99602.19;10370642;28;20216;-68
2023/06/11 21:46:54;;;;;;;6.20;4.45;;;;;;;23.67;32.53;99617.22;10357361;28;20465;-67
2023/06/11 21:51:56;;;;;;;5.53;4.38;;;;;;;23.74;32.94;99614.19;10356440;28;20240;-67
2023/06/11 21:56:57;;;;;;;5.63;4.45;;;;;;;23.46;33.85;99583.63;10362479;28;20229;-68
2023/06/11 22:01:59;;;;;;;5.45;4.57;;;;;;;24.57;32.39;99582.66;10357184;28;20229;-68
2023/06/11 22:07:02;;;;;;;5.85;3.90;;;;;;;23.53;33.58;99595.06;10360889;28;20240;-67
2023/06/11 22:12:06;;;;;;;6.40;4.63;;;;;;;23.08;33.92;99589.41;10346430;28;20263;-64
2023/06/11 22:17:07;;;;;;;5.97;4.80;;;;;;;22.94;34.35;99596.44;10360929;28;20331;-67
2023/06/11 22:22:10;;;;;;;7.68;4.13;;;;;;;24.67;32.46;99592.72;10355650;28;20858;-67
2023/06/11 22:27:14;;;;;;;5.38;4.00;;;;;;;23.82;33.67;99605.44;10351759;28;20936;-66
2023/06/11 22:32:16;;;;;;;6.60;4.93;;;;;;;24.04;32.99;99623.38;10358244;28;20296;-67
2023/06/11 22:37:17;;;;;;;4.68;3.92;;;;;;;24.74;32.38;99617.88;10349877;28;20704;-67
2023/06/11 22:42:19;;;;;;;9.40;4.20;;;;;;;25.47;32.07;99613.47;10359721;28;20279;-68
2023/06/11 22:47:21;;;;;;;6.32;4.57;;;;;;;22.89;34.15;99640.09;10353104;28;20229;-69
2023/06/11 22:52:22;;;;;;;9.68;4.47;;;;;;;24.15;32.58;99641.41;10366783;28;20215;-68
2023/06/11 22:57:24;;;;;;;6.15;4.38;;;;;;;23.66;33.89;99651.06;10363256;28;20225;-68
2023/06/11 23:02:26;;;;;;;4.97;4.35;;;;;;;23.69;34.31;99614.19;10359469;28;20229;-68
2023/06/11 23:07:28;;;;;;;6.38;4.63;;;;;;;23.48;33.94;99630.56;10338493;28;20630;-68
2023/06/11 23:12:30;;;;;;;7.20;4.35;;;;;;;23.32;33.98;99629.78;10360004;28;20209;-65
2023/06/11 23:17:33;;;;;;;5.55;3.97;;;;;;;22.93;34.49;99626.75;10350169;28;20229;-69
2023/06/11 23:22:36;;;;;;;5.32;4.40;;;;;;;22.48;34.99;99629.88;10363048;28;20217;-67
2023/06/11 23:27:43;;;;;;;4.63;4.10;;;;;;;23.19;34.47;99642.06;10350789;28;20244;-69